createdAt,value
2023-03-21T00:01:56.309Z,29.85
2023-03-21T00:04:28.336Z,29.27
2023-03-21T00:06:56.977Z,26.70
2023-03-21T00:09:24.416Z,30.55
2023-03-21T00:11:51.784Z,29.67
2023-03-21T00:14:20.355Z,28.40
2023-03-21T00:16:52.199Z,29.60
2023-03-21T00:19:21.923Z,30.38
2023-03-21T00:22:06.501Z,30.17
2023-03-21T00:24:36.631Z,36.42
2023-03-21T00:27:43.020Z,30.02
2023-03-21T00:29:56.069Z,32.03
2023-03-21T00:32:24.504Z,32.28
2023-03-21T00:35:11.917Z,34.40
2023-03-21T00:37:39.831Z,33.65
2023-03-21T00:40:22.961Z,34.85
2023-03-21T00:42:52.680Z,29.80
2023-03-21T00:45:22.351Z,32.65
2023-03-21T00:47:52.151Z,29.67
2023-03-21T00:50:21.816Z,39.67
2023-03-21T00:52:49.290Z,34.30
2023-03-21T00:55:19.475Z,29.15
2023-03-21T00:58:01.160Z,35.78
2023-03-21T01:00:29.609Z,29.50
2023-03-21T01:03:04.284Z,30.75
2023-03-21T01:05:59.741Z,32.25
2023-03-21T01:11:15.754Z,31.33
2023-03-21T01:13:53.652Z,36.92
2023-03-21T01:16:25.651Z,33.40
2023-03-21T01:18:54.010Z,34.63
2023-03-21T01:21:24.450Z,33.05
2023-03-21T01:23:52.147Z,32.15
2023-03-21T01:26:19.597Z,31.25
2023-03-21T01:28:47.156Z,36.20
2023-03-21T01:31:16.263Z,27.33
2023-03-21T01:33:44.465Z,33.30
2023-03-21T01:36:23.463Z,28.75
2023-03-21T01:38:53.826Z,32.88
2023-03-21T01:41:45.160Z,32.05
2023-03-21T01:44:25.109Z,34.03
2023-03-21T01:47:10.575Z,32.05
2023-03-21T01:49:54.377Z,30.70
2023-03-21T01:52:38.767Z,31.90
2023-03-21T01:55:16.625Z,30.90
2023-03-21T01:58:05.269Z,29.00
2023-03-21T02:00:41.608Z,30.10
2023-03-21T02:03:33.529Z,30.35
2023-03-21T02:07:01.738Z,31.80
2023-03-21T02:09:53.067Z,28.73
2023-03-21T02:12:23.598Z,30.08
2023-03-21T02:14:53.314Z,32.90
2023-03-21T02:18:02.913Z,33.13
2023-03-21T02:21:08.316Z,34.65
2023-03-21T02:23:50.352Z,29.63
2023-03-21T02:26:48.164Z,28.65
2023-03-21T02:29:47.658Z,25.48
2023-03-21T02:32:52.793Z,30.40
2023-03-21T02:35:56.769Z,27.85
2023-03-21T02:38:51.246Z,25.63
2023-03-21T02:41:51.299Z,23.15
2023-03-21T02:44:40.637Z,25.23
2023-03-21T02:47:22.143Z,23.45
2023-03-21T02:50:00.459Z,29.60
2023-03-21T02:52:39.150Z,27.65
2023-03-21T02:55:15.784Z,23.48
2023-03-21T02:57:54.250Z,25.25
2023-03-21T03:00:27.642Z,26.63
2023-03-21T03:03:08.209Z,25.73
2023-03-21T03:05:42.129Z,27.20
2023-03-21T03:08:37.531Z,28.95
2023-03-21T03:11:29.584Z,27.48
2023-03-21T03:14:46.499Z,25.95
2023-03-21T03:17:17.037Z,22.85
2023-03-21T03:19:57.634Z,23.10
2023-03-21T03:22:37.602Z,22.05
2023-03-21T03:25:26.959Z,23.70
2023-03-21T03:28:01.692Z,22.67
2023-03-21T03:30:39.260Z,24.73
2023-03-21T03:33:11.194Z,24.30
2023-03-21T03:35:38.743Z,22.20
2023-03-21T03:38:09.078Z,23.75
2023-03-21T03:40:49.836Z,23.48
2023-03-21T03:43:46.982Z,23.13
2023-03-21T03:46:40.360Z,23.58
2023-03-21T03:49:24.954Z,26.52
2023-03-21T03:52:06.433Z,21.90
2023-03-21T03:54:47.697Z,25.05
2023-03-21T03:57:16.292Z,20.67
2023-03-21T03:59:45.334Z,23.15
2023-03-21T04:02:30.317Z,23.50
2023-03-21T04:04:57.968Z,24.35
2023-03-21T04:07:25.854Z,20.98
2023-03-21T04:09:56.146Z,21.83
2023-03-21T04:12:24.800Z,19.42
2023-03-21T04:15:15.072Z,17.67
2023-03-21T04:17:47.987Z,14.45
2023-03-21T04:20:23.872Z,18.13
2023-03-21T04:23:05.599Z,15.70
2023-03-21T04:25:53.954Z,13.30
2023-03-21T04:28:26.993Z,18.08
2023-03-21T04:31:25.940Z,14.05
2023-03-21T04:34:05.985Z,12.20
2023-03-21T04:36:39.071Z,13.05
2023-03-21T04:39:13.080Z,13.50
2023-03-21T04:41:46.472Z,13.55
2023-03-21T04:44:15.691Z,10.97
2023-03-21T04:46:43.443Z,12.15
2023-03-21T04:49:11.994Z,11.30
2023-03-21T04:51:39.852Z,12.00
2023-03-21T04:56:47.885Z,11.85
2023-03-21T04:59:16.814Z,11.50
2023-03-21T05:01:45.025Z,11.32
2023-03-21T05:04:17.333Z,11.05
2023-03-21T05:06:46.528Z,11.70
2023-03-21T05:09:16.717Z,7.50
2023-03-21T05:11:44.600Z,10.23
2023-03-21T05:14:23.436Z,9.20
2023-03-21T05:16:55.629Z,9.68
2023-03-21T05:19:34.887Z,8.93
2023-03-21T05:22:09.700Z,10.38
2023-03-21T05:24:39.444Z,14.10
2023-03-21T05:29:43.864Z,11.85
2023-03-21T05:32:13.487Z,10.07
2023-03-21T05:34:43.261Z,12.07
2023-03-21T05:37:10.640Z,9.95
2023-03-21T05:39:51.079Z,10.32
2023-03-21T05:42:25.734Z,11.90
2023-03-21T05:44:53.537Z,11.23
2023-03-21T05:47:26.225Z,9.43
2023-03-21T05:49:55.329Z,9.35
2023-03-21T05:52:23.609Z,9.32
2023-03-21T05:54:51.102Z,10.57
2023-03-21T05:57:22.789Z,8.82
2023-03-21T05:59:59.127Z,13.60
2023-03-21T06:02:28.330Z,14.15
2023-03-21T06:04:58.915Z,15.55
2023-03-21T06:07:29.369Z,10.90
2023-03-21T06:52:46.942Z,7.57
2023-03-21T06:55:26.224Z,8.27
2023-03-21T06:58:30.881Z,7.85
2023-03-21T07:04:30.217Z,6.47
2023-03-21T07:07:34.873Z,6.53
2023-03-21T07:10:05.245Z,4.88
2023-03-21T07:12:41.789Z,7.68
2023-03-21T07:15:43.243Z,6.57
2023-03-21T07:18:28.058Z,5.40
2023-03-21T07:20:58.095Z,6.97
2023-03-21T07:23:40.197Z,5.28
2023-03-21T07:26:20.867Z,4.57
2023-03-21T07:29:27.230Z,8.60
2023-03-21T07:31:57.876Z,6.70
2023-03-21T07:34:27.472Z,8.00
2023-03-21T07:36:57.705Z,6.22
2023-03-21T07:39:33.253Z,7.20
2023-03-21T07:42:01.177Z,6.78
2023-03-21T07:44:40.147Z,5.25
2023-03-21T07:47:09.378Z,6.30
2023-03-21T07:50:12.117Z,5.82
2023-03-21T07:52:56.557Z,5.75
2023-03-21T07:55:24.301Z,5.00
2023-03-21T07:57:53.792Z,5.25
2023-03-21T08:06:37.392Z,6.50
2023-03-21T08:09:30.733Z,5.22
2023-03-21T08:12:00.875Z,5.07
2023-03-21T08:14:28.687Z,4.40
2023-03-21T08:17:04.429Z,5.10
2023-03-21T08:19:37.710Z,6.53
2023-03-21T08:25:43.047Z,4.55
2023-03-21T08:28:10.919Z,3.92
2023-03-21T08:30:38.710Z,2.90
2023-03-21T08:33:09.179Z,3.20
2023-03-21T08:35:40.849Z,4.22
2023-03-21T08:38:50.262Z,4.55
2023-03-21T08:41:27.689Z,5.38
2023-03-21T08:43:57.921Z,4.50
2023-03-21T08:46:32.281Z,3.58
2023-03-21T08:49:21.522Z,2.47
2023-03-21T08:52:04.666Z,2.30
2023-03-21T08:54:34.769Z,3.58
2023-03-21T08:57:03.077Z,3.35
2023-03-21T08:59:38.205Z,3.55
2023-03-21T09:02:06.706Z,1.98
2023-03-21T09:04:44.946Z,2.47
2023-03-21T09:07:15.176Z,2.25
2023-03-21T09:10:08.233Z,2.58
2023-03-21T09:12:44.699Z,4.90
2023-03-21T09:15:16.462Z,2.45
2023-03-21T09:18:15.219Z,2.72
2023-03-21T09:20:47.575Z,3.47
2023-03-21T09:25:59.232Z,2.53
2023-03-21T09:28:27.629Z,2.05
2023-03-21T09:30:55.531Z,1.48
2023-03-21T09:33:25.718Z,1.40
2023-03-21T09:35:55.409Z,1.20
2023-03-21T09:38:23.335Z,1.58
2023-03-21T09:40:50.645Z,1.08
2023-03-21T09:43:18.138Z,1.23
2023-03-21T09:45:55.449Z,0.75
2023-03-21T09:48:57.257Z,2.20
2023-03-21T09:51:29.270Z,1.70
2023-03-21T09:54:04.003Z,3.00
2023-03-21T09:56:49.016Z,2.45
2023-03-21T09:59:34.912Z,1.23
2023-03-21T10:02:04.482Z,2.15
2023-03-21T10:04:34.124Z,1.10
2023-03-21T10:07:09.311Z,3.25
2023-03-21T10:09:42.032Z,1.88
2023-03-21T10:12:24.920Z,1.23
2023-03-21T10:17:45.586Z,2.35
2023-03-21T10:20:26.391Z,3.15
2023-03-21T10:22:58.269Z,3.83
2023-03-21T10:25:48.685Z,1.40
2023-03-21T10:28:22.386Z,1.20
2023-03-21T10:30:52.846Z,2.58
2023-03-21T10:33:31.021Z,4.30
2023-03-21T10:36:26.003Z,2.05
2023-03-21T10:39:06.859Z,2.17
2023-03-21T10:41:36.226Z,3.00
2023-03-21T10:44:15.140Z,2.90
2023-03-21T10:46:59.578Z,1.67
2023-03-21T10:49:40.166Z,3.00
2023-03-21T10:52:11.833Z,1.38
2023-03-21T10:54:43.850Z,3.15
2023-03-21T10:57:22.579Z,2.58
2023-03-21T10:59:59.728Z,1.80
2023-03-21T11:02:55.729Z,2.10
2023-03-21T11:18:13.091Z,0.80
2023-03-21T11:23:44.040Z,1.60
2023-03-21T11:26:17.498Z,21.58
2023-03-21T11:28:49.790Z,6.50
2023-03-21T11:31:33.818Z,3.95
2023-03-21T11:34:10.233Z,1.52
2023-03-21T11:36:42.907Z,1.63
2023-03-21T11:39:35.557Z,1.60
2023-03-21T11:45:12.795Z,1.92
2023-03-21T11:50:46.690Z,3.25
2023-03-21T11:53:51.393Z,1.45
2023-03-21T11:56:51.171Z,5.50
2023-03-21T12:02:57.989Z,1.92
2023-03-21T12:09:39.858Z,1.60
2023-03-21T12:15:58.358Z,1.35
2023-03-21T12:18:58.044Z,16.65
2023-03-21T12:21:48.708Z,2.75
2023-03-21T12:24:55.682Z,2.70
2023-03-21T12:27:42.137Z,2.75
2023-03-21T12:30:43.130Z,5.13
2023-03-21T12:33:24.354Z,2.45
2023-03-21T12:36:07.276Z,252.30
2023-03-21T12:38:49.004Z,20.90
2023-03-21T12:41:36.427Z,2.08
2023-03-21T12:44:10.708Z,4.38
2023-03-21T12:46:53.114Z,2.78
2023-03-21T12:49:28.090Z,1.50
2023-03-21T12:52:04.768Z,1.35
2023-03-21T12:54:39.235Z,3.67
2023-03-21T12:57:27.722Z,2.90
2023-03-21T13:00:03.272Z,3.38
2023-03-21T13:03:10.401Z,3.20
2023-03-21T13:06:12.798Z,4.43
2023-03-21T13:09:10.505Z,5.82
2023-03-21T13:11:38.297Z,2.70
2023-03-21T13:14:16.411Z,3.25
2023-03-21T13:17:10.504Z,2.65
2023-03-21T13:19:56.668Z,2.72
2023-03-21T13:22:31.913Z,3.53
2023-03-21T13:25:20.302Z,2.75
2023-03-21T13:28:05.551Z,10.75
2023-03-21T13:30:33.564Z,4.07
2023-03-21T13:33:21.350Z,5.78
2023-03-21T13:36:06.963Z,7.90
2023-03-21T13:38:36.595Z,2.40
2023-03-21T13:41:13.960Z,2.15
2023-03-21T13:44:07.223Z,3.15
2023-03-21T13:46:53.411Z,1.02
2023-03-21T13:49:36.029Z,1.40
2023-03-21T13:52:27.665Z,1.67
2023-03-21T13:54:57.633Z,4.55
2023-03-21T13:57:30.286Z,3.80
2023-03-21T14:00:19.300Z,3.83
2023-03-21T14:03:05.698Z,3.05
2023-03-21T14:05:35.538Z,5.97
2023-03-21T14:08:15.573Z,3.55
2023-03-21T14:10:52.444Z,1.75
2023-03-21T14:13:23.060Z,1.55
2023-03-21T14:16:00.504Z,1.43
2023-03-21T14:18:52.271Z,1.42
2023-03-21T14:21:24.224Z,1.58
2023-03-21T14:24:04.577Z,3.58
2023-03-21T14:26:40.656Z,2.92
2023-03-21T14:29:25.078Z,3.10
2023-03-21T14:31:56.883Z,2.75
2023-03-21T14:34:27.317Z,1.35
2023-03-21T14:36:58.530Z,2.85
2023-03-21T14:39:33.699Z,1.33
2023-03-21T14:42:15.056Z,1.40
2023-03-21T14:44:55.729Z,1.48
2023-03-21T14:47:27.746Z,1.75
2023-03-21T14:49:57.155Z,2.90
2023-03-21T14:52:32.952Z,3.30
2023-03-21T14:55:13.198Z,3.15
2023-03-21T14:57:40.804Z,3.67
2023-03-21T15:00:16.065Z,1.10
2023-03-21T15:02:46.428Z,2.65
2023-03-21T15:05:38.800Z,2.15
2023-03-21T15:08:18.744Z,1.63
2023-03-21T15:11:06.862Z,3.38
2023-03-21T15:13:50.338Z,3.97
2023-03-21T15:16:18.598Z,6.35
2023-03-21T15:18:46.869Z,2.95
2023-03-21T15:21:36.658Z,2.70
2023-03-21T15:24:32.843Z,2.30
2023-03-21T15:27:06.717Z,1.75
2023-03-21T15:29:38.380Z,2.17
2023-03-21T15:32:16.729Z,4.07
2023-03-21T15:34:44.560Z,5.25
2023-03-21T15:37:28.336Z,3.25
2023-03-21T15:40:09.866Z,3.63
2023-03-21T15:42:41.802Z,1.92
2023-03-21T15:45:27.708Z,1.42
2023-03-21T15:48:06.736Z,3.70
2023-03-21T15:50:38.429Z,1.65
2023-03-21T15:53:19.502Z,1.70
2023-03-21T15:55:57.046Z,3.20
2023-03-21T15:58:28.081Z,3.03
2023-03-21T16:00:58.143Z,3.67
2023-03-21T16:03:29.025Z,5.07
2023-03-21T16:06:12.660Z,4.13
2023-03-21T16:09:08.663Z,2.40
2023-03-21T16:11:38.960Z,2.80
2023-03-21T16:14:39.764Z,3.58
2023-03-21T16:20:25.041Z,11.23
2023-03-21T16:23:40.229Z,11.38
2023-03-21T16:26:13.642Z,17.05
2023-03-21T16:28:50.920Z,9.65
2023-03-21T16:34:32.380Z,6.55
2023-03-21T16:36:59.796Z,6.72
2023-03-21T16:39:27.780Z,10.70
2023-03-21T16:41:58.650Z,8.73
2023-03-21T16:44:45.970Z,15.65
2023-03-21T16:47:18.889Z,19.10
2023-03-21T16:49:47.921Z,25.38
2023-03-21T16:52:15.995Z,14.60
2023-03-21T16:54:43.924Z,7.22
2023-03-21T16:57:30.670Z,6.78
2023-03-21T17:00:00.731Z,4.68
2023-03-21T17:02:37.810Z,3.55
2023-03-21T17:05:13.370Z,4.85
2023-03-21T17:07:42.167Z,4.03
2023-03-21T17:10:18.403Z,4.22
2023-03-21T17:12:46.662Z,4.38
2023-03-21T17:15:14.946Z,7.50
2023-03-21T17:17:42.793Z,9.02
2023-03-21T17:20:23.458Z,10.48
2023-03-21T17:22:51.723Z,6.72
2023-03-21T17:25:20.895Z,11.20
2023-03-21T17:27:49.491Z,31.73
2023-03-21T17:30:22.124Z,35.85
2023-03-21T17:35:19.522Z,33.47
2023-03-21T17:37:50.733Z,20.27
2023-03-21T17:40:23.518Z,18.80
2023-03-21T17:42:52.041Z,19.40
2023-03-21T17:45:21.000Z,28.52
2023-03-21T17:47:49.580Z,25.60
2023-03-21T17:50:26.289Z,38.17
2023-03-21T17:52:56.740Z,44.45
2023-03-21T17:55:25.149Z,37.97
2023-03-21T17:57:53.273Z,31.40
2023-03-21T18:00:32.274Z,32.85
2023-03-21T18:03:00.010Z,47.03
2023-03-21T18:05:28.520Z,66.97
2023-03-21T18:08:12.852Z,29.73
2023-03-21T18:10:42.434Z,31.90
2023-03-21T18:13:13.153Z,44.00
2023-03-21T18:15:44.781Z,46.45
2023-03-21T18:18:16.303Z,28.65
2023-03-21T18:20:52.980Z,26.17
2023-03-21T18:23:24.997Z,36.33
2023-03-21T18:25:53.642Z,23.13
2023-03-21T18:28:24.966Z,17.42
2023-03-21T18:31:08.512Z,21.27
2023-03-21T18:33:41.262Z,16.13
2023-03-21T18:36:13.802Z,17.02
2023-03-21T18:38:43.223Z,12.75
2023-03-21T18:41:20.107Z,16.02
2023-03-21T18:44:13.373Z,20.10
2023-03-21T18:46:41.136Z,13.20
2023-03-21T18:49:51.895Z,17.85
2023-03-21T18:51:59.428Z,18.35
2023-03-21T18:54:29.432Z,18.42
2023-03-21T18:59:47.896Z,31.02
2023-03-21T19:02:16.809Z,33.92
2023-03-21T19:04:45.539Z,31.45
2023-03-21T19:07:14.334Z,26.95
2023-03-21T19:10:05.313Z,23.60
2023-03-21T19:12:31.584Z,23.50
2023-03-21T19:14:59.415Z,23.60
2023-03-21T19:20:43.263Z,22.38
2023-03-21T19:23:12.529Z,25.17
2023-03-21T19:25:45.629Z,21.10
2023-03-21T19:28:14.802Z,24.02
2023-03-21T19:30:49.646Z,22.35
2023-03-21T19:33:24.452Z,22.58
2023-03-21T19:36:09.172Z,18.05
2023-03-21T19:38:41.281Z,23.42
2023-03-21T19:41:10.193Z,15.50
2023-03-21T19:43:43.453Z,20.63
2023-03-21T19:46:23.430Z,15.13
2023-03-21T19:48:51.983Z,19.33
2023-03-21T19:51:28.194Z,17.10
2023-03-21T19:54:00.916Z,33.88
2023-03-21T19:56:31.419Z,43.67
2023-03-21T19:59:03.476Z,44.53
2023-03-21T20:01:35.411Z,45.03
2023-03-21T20:04:06.857Z,49.15
2023-03-21T20:06:35.059Z,41.80
2023-03-21T20:11:55.426Z,47.97
2023-03-21T20:14:25.386Z,47.15
2023-03-21T20:16:55.762Z,51.85
2023-03-21T20:19:24.704Z,56.70
2023-03-21T20:22:00.633Z,57.50
2023-03-21T20:24:31.815Z,52.15
2023-03-21T20:27:01.219Z,51.53
2023-03-21T20:32:18.917Z,39.58
2023-03-21T20:34:49.096Z,36.65
2023-03-21T20:37:18.001Z,33.17
2023-03-21T20:39:47.195Z,34.53
2023-03-21T20:42:16.799Z,31.42
2023-03-21T20:44:58.811Z,35.45
2023-03-21T20:47:29.366Z,55.95
2023-03-21T20:50:00.116Z,64.57
2023-03-21T20:55:18.919Z,69.57
2023-03-21T20:57:48.529Z,66.65
2023-03-21T21:00:17.923Z,71.80
2023-03-21T21:02:48.717Z,67.20
2023-03-21T21:05:28.000Z,52.83
2023-03-21T21:07:57.396Z,53.17
2023-03-21T21:10:42.507Z,51.38
2023-03-21T21:13:21.529Z,53.25
2023-03-21T21:15:52.591Z,51.20
2023-03-21T21:18:22.583Z,50.30
2023-03-21T21:21:01.471Z,52.33
2023-03-21T21:23:29.472Z,46.88
2023-03-21T21:25:58.218Z,41.50
2023-03-21T21:28:28.939Z,30.95
2023-03-21T21:30:58.691Z,31.33
2023-03-21T21:33:29.213Z,27.60
2023-03-21T21:35:56.817Z,26.25
2023-03-21T21:38:24.326Z,22.38
2023-03-21T21:40:54.544Z,22.85
2023-03-21T21:43:23.113Z,16.88
2023-03-21T21:45:51.862Z,23.48
2023-03-21T21:48:20.245Z,20.38
2023-03-21T21:50:52.191Z,21.88
2023-03-21T21:53:20.603Z,17.13
2023-03-21T21:55:48.930Z,22.13
2023-03-21T21:58:18.761Z,18.58
2023-03-21T22:00:50.294Z,22.02
2023-03-21T22:03:22.270Z,20.98
2023-03-21T22:05:53.345Z,20.55
2023-03-21T22:08:21.171Z,17.73
2023-03-21T22:10:50.482Z,17.67
2023-03-21T22:13:17.904Z,18.23
2023-03-21T22:15:47.065Z,16.85
2023-03-21T22:18:14.719Z,16.20
2023-03-21T22:20:47.672Z,17.58
2023-03-21T22:23:15.166Z,20.70
2023-03-21T22:25:43.468Z,20.88
2023-03-21T22:28:11.217Z,24.92
2023-03-21T22:30:38.830Z,26.58
2023-03-21T22:33:09.741Z,24.52
2023-03-21T22:35:38.082Z,30.15
2023-03-21T22:38:05.548Z,30.98
2023-03-21T22:40:32.948Z,25.45
2023-03-21T22:43:02.986Z,23.73
2023-03-21T22:45:30.422Z,23.40
2023-03-21T22:47:59.998Z,22.75
2023-03-21T22:50:28.667Z,20.95
2023-03-21T22:52:55.968Z,18.85
2023-03-21T22:55:23.209Z,16.52
2023-03-21T22:57:50.569Z,24.38
2023-03-21T23:00:20.892Z,19.02
2023-03-21T23:02:48.310Z,24.20
2023-03-21T23:05:15.767Z,24.90
2023-03-21T23:07:43.140Z,20.20
2023-03-21T23:10:12.393Z,22.40
2023-03-21T23:12:40.448Z,26.42
2023-03-21T23:15:09.288Z,24.70
2023-03-21T23:17:39.218Z,21.85
2023-03-21T23:20:08.752Z,23.23
2023-03-21T23:22:38.337Z,21.73
2023-03-21T23:25:07.747Z,21.08
2023-03-21T23:27:35.926Z,18.95
2023-03-21T23:30:08.052Z,22.17
2023-03-21T23:32:35.506Z,17.63
2023-03-21T23:35:02.844Z,21.65
2023-03-21T23:37:30.376Z,21.00
2023-03-21T23:40:00.653Z,19.98
2023-03-21T23:42:33.196Z,20.40
2023-03-21T23:45:00.616Z,20.15
2023-03-21T23:47:28.351Z,19.63
2023-03-21T23:49:55.635Z,21.77
2023-03-21T23:52:22.996Z,19.30
2023-03-21T23:54:50.661Z,23.70
2023-03-21T23:57:18.196Z,23.98
2023-03-21T23:59:47.099Z,21.33
